sensor_id;sensor_type;location;lat;lon;timestamp;P1;durP1;ratioP1;P2;durP2;ratioP2
19095;SDS011;9680;52.520;13.332;2023-04-24T00:01:32;6.47;;;4.30;;
19095;SDS011;9680;52.520;13.332;2023-04-24T00:04:00;7.22;;;4.35;;
19095;SDS011;9680;52.520;13.332;2023-04-24T00:06:28;6.68;;;4.22;;
19095;SDS011;9680;52.520;13.332;2023-04-24T00:08:58;8.98;;;4.50;;
19095;SDS011;9680;52.520;13.332;2023-04-24T00:11:25;6.57;;;4.28;;
19095;SDS011;9680;52.520;13.332;2023-04-24T00:13:52;7.30;;;3.95;;
19095;SDS011;9680;52.520;13.332;2023-04-24T00:16:19;8.35;;;3.85;;
19095;SDS011;9680;52.520;13.332;2023-04-24T00:18:45;9.23;;;4.13;;
19095;SDS011;9680;52.520;13.332;2023-04-24T00:21:14;7.05;;;3.97;;
19095;SDS011;9680;52.520;13.332;2023-04-24T00:23:42;7.25;;;4.22;;
19095;SDS011;9680;52.520;13.332;2023-04-24T00:26:09;5.93;;;3.92;;
19095;SDS011;9680;52.520;13.332;2023-04-24T00:28:36;9.20;;;4.53;;
19095;SDS011;9680;52.520;13.332;2023-04-24T00:31:03;6.05;;;4.20;;
19095;SDS011;9680;52.520;13.332;2023-04-24T00:33:30;7.13;;;4.38;;
19095;SDS011;9680;52.520;13.332;2023-04-24T00:35:57;7.07;;;4.38;;
19095;SDS011;9680;52.520;13.332;2023-04-24T00:38:25;6.72;;;4.47;;
19095;SDS011;9680;52.520;13.332;2023-04-24T00:40:52;7.13;;;4.28;;
19095;SDS011;9680;52.520;13.332;2023-04-24T00:43:20;6.43;;;4.28;;
19095;SDS011;9680;52.520;13.332;2023-04-24T00:45:46;7.70;;;4.75;;
19095;SDS011;9680;52.520;13.332;2023-04-24T00:48:13;6.40;;;4.03;;
19095;SDS011;9680;52.520;13.332;2023-04-24T00:50:41;6.70;;;4.47;;
19095;SDS011;9680;52.520;13.332;2023-04-24T00:53:08;7.25;;;4.28;;
19095;SDS011;9680;52.520;13.332;2023-04-24T00:55:36;7.93;;;4.40;;
19095;SDS011;9680;52.520;13.332;2023-04-24T00:58:04;8.10;;;4.68;;
19095;SDS011;9680;52.520;13.332;2023-04-24T01:00:31;6.38;;;4.22;;
19095;SDS011;9680;52.520;13.332;2023-04-24T01:02:58;6.97;;;4.30;;
19095;SDS011;9680;52.520;13.332;2023-04-24T01:05:27;6.13;;;4.00;;
19095;SDS011;9680;52.520;13.332;2023-04-24T01:07:55;7.90;;;4.53;;
19095;SDS011;9680;52.520;13.332;2023-04-24T01:10:22;6.90;;;3.97;;
19095;SDS011;9680;52.520;13.332;2023-04-24T01:12:53;10.20;;;4.60;;
19095;SDS011;9680;52.520;13.332;2023-04-24T01:15:19;7.68;;;4.55;;
19095;SDS011;9680;52.520;13.332;2023-04-24T01:17:46;6.10;;;4.10;;
19095;SDS011;9680;52.520;13.332;2023-04-24T01:20:13;7.82;;;4.75;;
19095;SDS011;9680;52.520;13.332;2023-04-24T01:22:42;7.05;;;4.68;;
19095;SDS011;9680;52.520;13.332;2023-04-24T01:25:09;8.65;;;5.03;;
19095;SDS011;9680;52.520;13.332;2023-04-24T01:27:35;9.88;;;4.47;;
19095;SDS011;9680;52.520;13.332;2023-04-24T01:30:04;9.38;;;4.50;;
19095;SDS011;9680;52.520;13.332;2023-04-24T01:32:32;7.05;;;4.45;;
19095;SDS011;9680;52.520;13.332;2023-04-24T01:34:59;7.18;;;4.50;;
19095;SDS011;9680;52.520;13.332;2023-04-24T01:37:26;7.20;;;4.45;;
19095;SDS011;9680;52.520;13.332;2023-04-24T01:39:54;7.30;;;4.50;;
19095;SDS011;9680;52.520;13.332;2023-04-24T01:42:21;6.90;;;4.57;;
19095;SDS011;9680;52.520;13.332;2023-04-24T01:44:48;6.45;;;4.55;;
19095;SDS011;9680;52.520;13.332;2023-04-24T01:47:16;7.30;;;4.88;;
19095;SDS011;9680;52.520;13.332;2023-04-24T01:49:43;8.52;;;4.68;;
19095;SDS011;9680;52.520;13.332;2023-04-24T01:52:11;7.45;;;5.00;;
19095;SDS011;9680;52.520;13.332;2023-04-24T01:54:38;9.27;;;5.00;;
19095;SDS011;9680;52.520;13.332;2023-04-24T01:57:06;8.77;;;5.03;;
19095;SDS011;9680;52.520;13.332;2023-04-24T01:59:33;8.77;;;5.05;;
19095;SDS011;9680;52.520;13.332;2023-04-24T02:02:01;7.60;;;4.63;;
19095;SDS011;9680;52.520;13.332;2023-04-24T02:04:28;9.70;;;5.35;;
19095;SDS011;9680;52.520;13.332;2023-04-24T02:06:56;8.63;;;5.15;;
19095;SDS011;9680;52.520;13.332;2023-04-24T02:09:23;8.90;;;4.90;;
19095;SDS011;9680;52.520;13.332;2023-04-24T02:11:50;8.00;;;4.30;;
19095;SDS011;9680;52.520;13.332;2023-04-24T02:14:19;7.70;;;4.93;;
19095;SDS011;9680;52.520;13.332;2023-04-24T02:16:45;6.93;;;4.43;;
19095;SDS011;9680;52.520;13.332;2023-04-24T02:19:12;9.15;;;5.47;;
19095;SDS011;9680;52.520;13.332;2023-04-24T02:21:39;8.57;;;4.63;;
19095;SDS011;9680;52.520;13.332;2023-04-24T02:24:07;7.47;;;4.80;;
19095;SDS011;9680;52.520;13.332;2023-04-24T02:26:34;6.72;;;4.47;;
19095;SDS011;9680;52.520;13.332;2023-04-24T02:29:01;8.27;;;5.28;;
19095;SDS011;9680;52.520;13.332;2023-04-24T02:31:29;8.13;;;5.07;;
19095;SDS011;9680;52.520;13.332;2023-04-24T02:33:56;8.98;;;4.95;;
19095;SDS011;9680;52.520;13.332;2023-04-24T02:36:22;9.30;;;4.90;;
19095;SDS011;9680;52.520;13.332;2023-04-24T02:38:49;9.27;;;5.55;;
19095;SDS011;9680;52.520;13.332;2023-04-24T02:41:16;8.73;;;5.00;;
19095;SDS011;9680;52.520;13.332;2023-04-24T02:43:43;8.23;;;5.25;;
19095;SDS011;9680;52.520;13.332;2023-04-24T02:46:10;9.70;;;5.70;;
19095;SDS011;9680;52.520;13.332;2023-04-24T02:48:38;9.48;;;5.57;;
19095;SDS011;9680;52.520;13.332;2023-04-24T02:51:05;8.27;;;5.25;;
19095;SDS011;9680;52.520;13.332;2023-04-24T02:53:32;10.13;;;6.00;;
19095;SDS011;9680;52.520;13.332;2023-04-24T02:55:59;8.00;;;5.03;;
19095;SDS011;9680;52.520;13.332;2023-04-24T02:58:26;11.20;;;5.28;;
19095;SDS011;9680;52.520;13.332;2023-04-24T03:00:53;10.30;;;5.45;;
19095;SDS011;9680;52.520;13.332;2023-04-24T03:03:20;9.63;;;6.00;;
19095;SDS011;9680;52.520;13.332;2023-04-24T03:05:48;10.32;;;5.55;;
19095;SDS011;9680;52.520;13.332;2023-04-24T03:08:15;9.05;;;5.28;;
19095;SDS011;9680;52.520;13.332;2023-04-24T03:10:42;8.98;;;5.70;;
19095;SDS011;9680;52.520;13.332;2023-04-24T03:13:09;11.65;;;5.60;;
19095;SDS011;9680;52.520;13.332;2023-04-24T03:15:37;8.32;;;5.15;;
19095;SDS011;9680;52.520;13.332;2023-04-24T03:18:04;10.00;;;5.70;;
19095;SDS011;9680;52.520;13.332;2023-04-24T03:20:31;9.23;;;5.53;;
19095;SDS011;9680;52.520;13.332;2023-04-24T03:22:59;9.95;;;5.20;;
19095;SDS011;9680;52.520;13.332;2023-04-24T03:25:26;9.63;;;5.55;;
19095;SDS011;9680;52.520;13.332;2023-04-24T03:27:54;9.25;;;5.75;;
19095;SDS011;9680;52.520;13.332;2023-04-24T03:30:37;7.72;;;5.05;;
19095;SDS011;9680;52.520;13.332;2023-04-24T03:33:05;8.38;;;5.18;;
19095;SDS011;9680;52.520;13.332;2023-04-24T03:35:36;9.60;;;5.15;;
19095;SDS011;9680;52.520;13.332;2023-04-24T03:38:08;9.18;;;5.25;;
19095;SDS011;9680;52.520;13.332;2023-04-24T03:40:41;8.30;;;5.30;;
19095;SDS011;9680;52.520;13.332;2023-04-24T03:43:46;7.47;;;4.90;;
19095;SDS011;9680;52.520;13.332;2023-04-24T03:46:14;11.00;;;5.13;;
19095;SDS011;9680;52.520;13.332;2023-04-24T03:48:47;8.40;;;5.30;;
19095;SDS011;9680;52.520;13.332;2023-04-24T03:51:17;8.65;;;4.80;;
19095;SDS011;9680;52.520;13.332;2023-04-24T03:53:49;8.10;;;4.97;;
19095;SDS011;9680;52.520;13.332;2023-04-24T03:56:18;8.35;;;4.68;;
19095;SDS011;9680;52.520;13.332;2023-04-24T03:58:46;8.27;;;4.75;;
19095;SDS011;9680;52.520;13.332;2023-04-24T04:01:13;15.13;;;5.15;;
19095;SDS011;9680;52.520;13.332;2023-04-24T04:03:58;11.20;;;4.45;;
19095;SDS011;9680;52.520;13.332;2023-04-24T04:06:26;9.32;;;4.80;;
19095;SDS011;9680;52.520;13.332;2023-04-24T04:08:56;7.65;;;4.32;;
19095;SDS011;9680;52.520;13.332;2023-04-24T04:11:23;8.48;;;4.95;;
19095;SDS011;9680;52.520;13.332;2023-04-24T04:13:50;8.73;;;4.60;;
19095;SDS011;9680;52.520;13.332;2023-04-24T04:16:19;8.75;;;4.43;;
19095;SDS011;9680;52.520;13.332;2023-04-24T04:18:49;7.57;;;4.55;;
19095;SDS011;9680;52.520;13.332;2023-04-24T04:21:16;6.88;;;4.43;;
19095;SDS011;9680;52.520;13.332;2023-04-24T04:23:43;7.15;;;4.43;;
19095;SDS011;9680;52.520;13.332;2023-04-24T04:26:19;6.95;;;4.18;;
19095;SDS011;9680;52.520;13.332;2023-04-24T04:29:08;7.70;;;4.30;;
19095;SDS011;9680;52.520;13.332;2023-04-24T04:31:39;8.45;;;4.90;;
19095;SDS011;9680;52.520;13.332;2023-04-24T04:34:10;9.13;;;4.85;;
19095;SDS011;9680;52.520;13.332;2023-04-24T04:36:38;9.55;;;4.78;;
19095;SDS011;9680;52.520;13.332;2023-04-24T04:39:26;9.32;;;4.90;;
19095;SDS011;9680;52.520;13.332;2023-04-24T04:42:21;6.85;;;4.35;;
19095;SDS011;9680;52.520;13.332;2023-04-24T04:44:49;8.88;;;4.72;;
19095;SDS011;9680;52.520;13.332;2023-04-24T04:47:21;10.38;;;4.30;;
19095;SDS011;9680;52.520;13.332;2023-04-24T04:49:49;7.88;;;4.65;;
19095;SDS011;9680;52.520;13.332;2023-04-24T04:52:23;6.17;;;4.23;;
19095;SDS011;9680;52.520;13.332;2023-04-24T04:54:59;5.90;;;4.07;;
19095;SDS011;9680;52.520;13.332;2023-04-24T04:57:42;7.20;;;4.13;;
19095;SDS011;9680;52.520;13.332;2023-04-24T05:00:09;6.00;;;4.25;;
19095;SDS011;9680;52.520;13.332;2023-04-24T05:02:45;7.75;;;4.25;;
19095;SDS011;9680;52.520;13.332;2023-04-24T05:05:12;12.55;;;4.55;;
19095;SDS011;9680;52.520;13.332;2023-04-24T05:07:38;8.10;;;3.92;;
19095;SDS011;9680;52.520;13.332;2023-04-24T05:10:06;7.35;;;3.90;;
19095;SDS011;9680;52.520;13.332;2023-04-24T05:12:33;7.35;;;3.97;;
19095;SDS011;9680;52.520;13.332;2023-04-24T05:15:03;5.90;;;4.07;;
19095;SDS011;9680;52.520;13.332;2023-04-24T05:17:30;5.95;;;3.55;;
19095;SDS011;9680;52.520;13.332;2023-04-24T05:19:58;6.70;;;4.20;;
19095;SDS011;9680;52.520;13.332;2023-04-24T05:22:26;9.00;;;3.72;;
19095;SDS011;9680;52.520;13.332;2023-04-24T05:24:52;6.03;;;3.58;;
19095;SDS011;9680;52.520;13.332;2023-04-24T05:27:45;5.60;;;3.50;;
19095;SDS011;9680;52.520;13.332;2023-04-24T05:30:16;5.50;;;3.38;;
19095;SDS011;9680;52.520;13.332;2023-04-24T05:32:42;6.45;;;3.63;;
19095;SDS011;9680;52.520;13.332;2023-04-24T05:35:09;6.18;;;3.40;;
19095;SDS011;9680;52.520;13.332;2023-04-24T05:37:36;5.38;;;3.20;;
19095;SDS011;9680;52.520;13.332;2023-04-24T05:40:03;5.43;;;3.00;;
19095;SDS011;9680;52.520;13.332;2023-04-24T05:42:31;5.00;;;3.10;;
19095;SDS011;9680;52.520;13.332;2023-04-24T05:44:58;5.22;;;2.83;;
19095;SDS011;9680;52.520;13.332;2023-04-24T05:47:27;4.63;;;2.92;;
19095;SDS011;9680;52.520;13.332;2023-04-24T05:49:54;4.32;;;2.70;;
19095;SDS011;9680;52.520;13.332;2023-04-24T05:52:20;6.15;;;2.65;;
19095;SDS011;9680;52.520;13.332;2023-04-24T05:54:48;5.18;;;2.72;;
19095;SDS011;9680;52.520;13.332;2023-04-24T05:57:20;4.00;;;2.30;;
19095;SDS011;9680;52.520;13.332;2023-04-24T05:59:52;4.85;;;3.00;;
19095;SDS011;9680;52.520;13.332;2023-04-24T06:02:20;3.95;;;2.50;;
19095;SDS011;9680;52.520;13.332;2023-04-24T06:04:48;5.75;;;2.60;;
19095;SDS011;9680;52.520;13.332;2023-04-24T06:07:16;7.20;;;2.38;;
19095;SDS011;9680;52.520;13.332;2023-04-24T06:09:44;3.90;;;2.67;;
19095;SDS011;9680;52.520;13.332;2023-04-24T06:12:10;4.03;;;2.20;;
19095;SDS011;9680;52.520;13.332;2023-04-24T06:14:49;4.10;;;2.28;;
19095;SDS011;9680;52.520;13.332;2023-04-24T06:17:20;5.63;;;2.08;;
19095;SDS011;9680;52.520;13.332;2023-04-24T06:20:03;4.95;;;2.30;;
19095;SDS011;9680;52.520;13.332;2023-04-24T06:22:31;3.25;;;2.03;;
19095;SDS011;9680;52.520;13.332;2023-04-24T06:24:59;4.63;;;1.90;;
19095;SDS011;9680;52.520;13.332;2023-04-24T06:27:26;5.28;;;1.88;;
19095;SDS011;9680;52.520;13.332;2023-04-24T06:29:52;4.50;;;2.00;;
19095;SDS011;9680;52.520;13.332;2023-04-24T06:32:21;3.63;;;2.13;;
19095;SDS011;9680;52.520;13.332;2023-04-24T06:34:48;2.53;;;1.80;;
19095;SDS011;9680;52.520;13.332;2023-04-24T06:37:17;2.75;;;1.67;;
19095;SDS011;9680;52.520;13.332;2023-04-24T06:39:44;3.67;;;1.67;;
19095;SDS011;9680;52.520;13.332;2023-04-24T06:42:11;1.95;;;1.52;;
19095;SDS011;9680;52.520;13.332;2023-04-24T06:44:38;2.78;;;1.67;;
19095;SDS011;9680;52.520;13.332;2023-04-24T06:47:06;4.22;;;1.58;;
19095;SDS011;9680;52.520;13.332;2023-04-24T06:49:34;4.45;;;1.40;;
19095;SDS011;9680;52.520;13.332;2023-04-24T06:52:00;2.53;;;1.40;;
19095;SDS011;9680;52.520;13.332;2023-04-24T06:54:30;2.50;;;1.20;;
19095;SDS011;9680;52.520;13.332;2023-04-24T06:56:57;2.35;;;1.63;;
19095;SDS011;9680;52.520;13.332;2023-04-24T06:59:24;1.80;;;1.35;;
19095;SDS011;9680;52.520;13.332;2023-04-24T07:01:51;1.90;;;1.33;;
19095;SDS011;9680;52.520;13.332;2023-04-24T07:04:17;3.78;;;1.13;;
19095;SDS011;9680;52.520;13.332;2023-04-24T07:06:44;1.60;;;1.10;;
19095;SDS011;9680;52.520;13.332;2023-04-24T07:09:12;1.63;;;1.00;;
19095;SDS011;9680;52.520;13.332;2023-04-24T07:11:42;1.83;;;1.00;;
19095;SDS011;9680;52.520;13.332;2023-04-24T07:14:09;3.08;;;1.33;;
19095;SDS011;9680;52.520;13.332;2023-04-24T07:16:36;3.55;;;1.23;;
19095;SDS011;9680;52.520;13.332;2023-04-24T07:19:03;1.85;;;0.98;;
19095;SDS011;9680;52.520;13.332;2023-04-24T07:21:30;3.05;;;1.30;;
19095;SDS011;9680;52.520;13.332;2023-04-24T07:23:57;2.10;;;1.15;;
19095;SDS011;9680;52.520;13.332;2023-04-24T07:26:24;1.77;;;1.10;;
19095;SDS011;9680;52.520;13.332;2023-04-24T07:28:52;1.35;;;0.80;;
19095;SDS011;9680;52.520;13.332;2023-04-24T07:31:20;2.00;;;0.77;;
19095;SDS011;9680;52.520;13.332;2023-04-24T07:33:46;1.52;;;0.80;;
19095;SDS011;9680;52.520;13.332;2023-04-24T07:36:13;1.90;;;0.90;;
19095;SDS011;9680;52.520;13.332;2023-04-24T07:38:44;1.45;;;0.90;;
19095;SDS011;9680;52.520;13.332;2023-04-24T07:41:11;1.60;;;0.77;;
19095;SDS011;9680;52.520;13.332;2023-04-24T07:43:37;1.55;;;0.90;;
19095;SDS011;9680;52.520;13.332;2023-04-24T07:46:05;4.40;;;1.00;;
19095;SDS011;9680;52.520;13.332;2023-04-24T07:48:33;1.88;;;0.80;;
19095;SDS011;9680;52.520;13.332;2023-04-24T07:51:00;2.88;;;0.90;;
19095;SDS011;9680;52.520;13.332;2023-04-24T07:53:27;2.63;;;0.93;;
19095;SDS011;9680;52.520;13.332;2023-04-24T07:55:53;1.50;;;0.80;;
19095;SDS011;9680;52.520;13.332;2023-04-24T07:58:21;1.55;;;0.80;;
19095;SDS011;9680;52.520;13.332;2023-04-24T08:00:47;1.35;;;0.80;;
19095;SDS011;9680;52.520;13.332;2023-04-24T08:03:15;1.10;;;0.70;;
19095;SDS011;9680;52.520;13.332;2023-04-24T08:05:44;1.08;;;0.80;;
19095;SDS011;9680;52.520;13.332;2023-04-24T08:08:11;1.15;;;0.60;;
19095;SDS011;9680;52.520;13.332;2023-04-24T08:10:38;0.80;;;0.68;;
19095;SDS011;9680;52.520;13.332;2023-04-24T08:13:05;2.55;;;0.70;;
19095;SDS011;9680;52.520;13.332;2023-04-24T08:15:31;0.70;;;0.60;;
19095;SDS011;9680;52.520;13.332;2023-04-24T08:17:58;1.02;;;0.70;;
19095;SDS011;9680;52.520;13.332;2023-04-24T08:20:26;2.28;;;0.88;;
19095;SDS011;9680;52.520;13.332;2023-04-24T08:22:53;0.75;;;0.50;;
19095;SDS011;9680;52.520;13.332;2023-04-24T08:25:20;0.90;;;0.70;;
19095;SDS011;9680;52.520;13.332;2023-04-24T08:27:48;1.40;;;0.85;;
19095;SDS011;9680;52.520;13.332;2023-04-24T08:30:14;1.00;;;0.77;;
19095;SDS011;9680;52.520;13.332;2023-04-24T08:32:41;1.63;;;0.70;;
19095;SDS011;9680;52.520;13.332;2023-04-24T08:35:08;0.80;;;0.60;;
19095;SDS011;9680;52.520;13.332;2023-04-24T08:37:37;0.77;;;0.60;;
19095;SDS011;9680;52.520;13.332;2023-04-24T08:40:05;0.90;;;0.70;;
19095;SDS011;9680;52.520;13.332;2023-04-24T08:42:37;1.85;;;0.80;;
19095;SDS011;9680;52.520;13.332;2023-04-24T08:45:05;1.73;;;0.60;;
19095;SDS011;9680;52.520;13.332;2023-04-24T08:47:33;1.80;;;0.60;;
19095;SDS011;9680;52.520;13.332;2023-04-24T08:50:02;1.08;;;0.68;;
19095;SDS011;9680;52.520;13.332;2023-04-24T08:52:31;1.20;;;0.50;;
19095;SDS011;9680;52.520;13.332;2023-04-24T08:55:00;2.00;;;0.80;;
19095;SDS011;9680;52.520;13.332;2023-04-24T08:57:28;1.38;;;0.80;;
19095;SDS011;9680;52.520;13.332;2023-04-24T08:59:56;1.15;;;0.70;;
19095;SDS011;9680;52.520;13.332;2023-04-24T09:02:25;1.50;;;0.70;;
19095;SDS011;9680;52.520;13.332;2023-04-24T09:04:52;2.47;;;0.60;;
19095;SDS011;9680;52.520;13.332;2023-04-24T09:07:19;1.88;;;1.00;;
19095;SDS011;9680;52.520;13.332;2023-04-24T09:09:48;0.80;;;0.60;;
19095;SDS011;9680;52.520;13.332;2023-04-24T09:12:18;0.82;;;0.70;;
19095;SDS011;9680;52.520;13.332;2023-04-24T09:14:45;0.90;;;0.68;;
19095;SDS011;9680;52.520;13.332;2023-04-24T09:17:12;1.45;;;0.68;;
19095;SDS011;9680;52.520;13.332;2023-04-24T09:19:39;3.13;;;0.73;;
19095;SDS011;9680;52.520;13.332;2023-04-24T09:22:07;1.17;;;0.63;;
19095;SDS011;9680;52.520;13.332;2023-04-24T09:24:34;0.80;;;0.68;;
19095;SDS011;9680;52.520;13.332;2023-04-24T09:27:01;0.85;;;0.70;;
19095;SDS011;9680;52.520;13.332;2023-04-24T09:29:30;2.45;;;0.80;;
19095;SDS011;9680;52.520;13.332;2023-04-24T09:31:58;2.53;;;0.90;;
19095;SDS011;9680;52.520;13.332;2023-04-24T09:34:25;1.42;;;0.80;;
19095;SDS011;9680;52.520;13.332;2023-04-24T09:36:54;1.08;;;0.80;;
19095;SDS011;9680;52.520;13.332;2023-04-24T09:39:21;1.25;;;0.70;;
19095;SDS011;9680;52.520;13.332;2023-04-24T09:41:48;1.60;;;0.80;;
19095;SDS011;9680;52.520;13.332;2023-04-24T09:44:17;2.45;;;0.80;;
19095;SDS011;9680;52.520;13.332;2023-04-24T09:46:48;2.40;;;1.30;;
19095;SDS011;9680;52.520;13.332;2023-04-24T09:49:21;1.20;;;0.90;;
19095;SDS011;9680;52.520;13.332;2023-04-24T09:51:49;2.05;;;1.00;;
19095;SDS011;9680;52.520;13.332;2023-04-24T09:54:17;1.63;;;0.80;;
19095;SDS011;9680;52.520;13.332;2023-04-24T09:56:46;1.20;;;0.90;;
19095;SDS011;9680;52.520;13.332;2023-04-24T09:59:14;1.45;;;1.00;;
19095;SDS011;9680;52.520;13.332;2023-04-24T10:01:42;4.13;;;0.80;;
19095;SDS011;9680;52.520;13.332;2023-04-24T10:04:18;2.58;;;1.17;;
19095;SDS011;9680;52.520;13.332;2023-04-24T10:06:46;2.67;;;0.80;;
19095;SDS011;9680;52.520;13.332;2023-04-24T10:09:15;1.15;;;0.80;;
19095;SDS011;9680;52.520;13.332;2023-04-24T10:11:42;1.17;;;0.80;;
19095;SDS011;9680;52.520;13.332;2023-04-24T10:14:12;2.20;;;0.90;;
19095;SDS011;9680;52.520;13.332;2023-04-24T10:16:39;4.95;;;0.80;;
19095;SDS011;9680;52.520;13.332;2023-04-24T10:19:07;1.40;;;0.90;;
19095;SDS011;9680;52.520;13.332;2023-04-24T10:21:35;1.95;;;1.10;;
19095;SDS011;9680;52.520;13.332;2023-04-24T10:24:04;1.58;;;1.05;;
19095;SDS011;9680;52.520;13.332;2023-04-24T10:26:32;1.42;;;0.80;;
19095;SDS011;9680;52.520;13.332;2023-04-24T10:29:00;2.13;;;0.90;;
19095;SDS011;9680;52.520;13.332;2023-04-24T10:31:28;3.47;;;0.95;;
19095;SDS011;9680;52.520;13.332;2023-04-24T10:33:58;1.05;;;0.90;;
19095;SDS011;9680;52.520;13.332;2023-04-24T10:36:27;1.45;;;0.95;;
19095;SDS011;9680;52.520;13.332;2023-04-24T10:39:00;3.97;;;0.90;;
19095;SDS011;9680;52.520;13.332;2023-04-24T10:41:29;1.10;;;0.82;;
19095;SDS011;9680;52.520;13.332;2023-04-24T10:44:06;2.83;;;0.80;;
19095;SDS011;9680;52.520;13.332;2023-04-24T10:46:35;0.80;;;0.73;;
19095;SDS011;9680;52.520;13.332;2023-04-24T10:49:03;2.90;;;0.95;;
19095;SDS011;9680;52.520;13.332;2023-04-24T10:51:45;3.63;;;1.00;;
19095;SDS011;9680;52.520;13.332;2023-04-24T10:54:24;1.48;;;0.90;;
19095;SDS011;9680;52.520;13.332;2023-04-24T10:56:52;1.42;;;0.77;;
19095;SDS011;9680;52.520;13.332;2023-04-24T10:59:26;1.27;;;0.82;;
19095;SDS011;9680;52.520;13.332;2023-04-24T11:01:53;0.90;;;0.70;;
19095;SDS011;9680;52.520;13.332;2023-04-24T11:04:31;1.63;;;0.73;;
19095;SDS011;9680;52.520;13.332;2023-04-24T11:07:00;1.48;;;0.90;;
19095;SDS011;9680;52.520;13.332;2023-04-24T11:09:28;1.77;;;0.90;;
19095;SDS011;9680;52.520;13.332;2023-04-24T11:12:03;1.10;;;0.90;;
19095;SDS011;9680;52.520;13.332;2023-04-24T11:17:30;1.40;;;0.90;;
19095;SDS011;9680;52.520;13.332;2023-04-24T11:20:02;0.98;;;0.73;;
19095;SDS011;9680;52.520;13.332;2023-04-24T11:22:30;1.77;;;0.90;;
19095;SDS011;9680;52.520;13.332;2023-04-24T11:25:01;1.55;;;0.80;;
19095;SDS011;9680;52.520;13.332;2023-04-24T11:27:30;1.38;;;0.93;;
19095;SDS011;9680;52.520;13.332;2023-04-24T11:29:59;1.40;;;0.77;;
19095;SDS011;9680;52.520;13.332;2023-04-24T11:32:28;2.53;;;0.90;;
19095;SDS011;9680;52.520;13.332;2023-04-24T11:34:58;2.17;;;1.10;;
19095;SDS011;9680;52.520;13.332;2023-04-24T11:37:26;2.33;;;1.00;;
19095;SDS011;9680;52.520;13.332;2023-04-24T11:39:55;1.83;;;1.05;;
19095;SDS011;9680;52.520;13.332;2023-04-24T11:42:25;1.08;;;0.90;;
19095;SDS011;9680;52.520;13.332;2023-04-24T11:44:52;2.83;;;1.20;;
19095;SDS011;9680;52.520;13.332;2023-04-24T11:47:26;3.88;;;1.10;;
19095;SDS011;9680;52.520;13.332;2023-04-24T11:49:54;2.17;;;1.48;;
19095;SDS011;9680;52.520;13.332;2023-04-24T11:52:21;1.58;;;1.20;;
19095;SDS011;9680;52.520;13.332;2023-04-24T11:54:48;3.22;;;1.48;;
19095;SDS011;9680;52.520;13.332;2023-04-24T11:57:16;1.90;;;1.20;;
19095;SDS011;9680;52.520;13.332;2023-04-24T11:59:46;4.35;;;1.20;;
19095;SDS011;9680;52.520;13.332;2023-04-24T12:02:19;2.67;;;1.30;;
19095;SDS011;9680;52.520;13.332;2023-04-24T12:04:48;1.35;;;1.00;;
19095;SDS011;9680;52.520;13.332;2023-04-24T12:07:15;3.38;;;1.48;;
19095;SDS011;9680;52.520;13.332;2023-04-24T12:09:42;1.80;;;1.10;;
19095;SDS011;9680;52.520;13.332;2023-04-24T12:12:11;2.70;;;1.10;;
19095;SDS011;9680;52.520;13.332;2023-04-24T12:14:42;1.63;;;1.00;;
19095;SDS011;9680;52.520;13.332;2023-04-24T12:17:26;2.10;;;1.02;;
19095;SDS011;9680;52.520;13.332;2023-04-24T12:19:58;1.45;;;0.90;;
19095;SDS011;9680;52.520;13.332;2023-04-24T12:22:27;1.13;;;1.00;;
19095;SDS011;9680;52.520;13.332;2023-04-24T12:25:00;2.20;;;1.10;;
19095;SDS011;9680;52.520;13.332;2023-04-24T12:27:31;1.02;;;0.90;;
19095;SDS011;9680;52.520;13.332;2023-04-24T12:30:02;3.55;;;1.30;;
19095;SDS011;9680;52.520;13.332;2023-04-24T12:32:30;2.03;;;0.90;;
19095;SDS011;9680;52.520;13.332;2023-04-24T12:34:57;2.63;;;0.85;;
19095;SDS011;9680;52.520;13.332;2023-04-24T12:37:25;1.08;;;0.70;;
19095;SDS011;9680;52.520;13.332;2023-04-24T12:39:59;1.60;;;1.00;;
19095;SDS011;9680;52.520;13.332;2023-04-24T12:42:27;1.65;;;0.95;;
19095;SDS011;9680;52.520;13.332;2023-04-24T12:44:58;0.95;;;0.80;;
19095;SDS011;9680;52.520;13.332;2023-04-24T12:47:27;1.00;;;0.77;;
19095;SDS011;9680;52.520;13.332;2023-04-24T12:49:55;0.90;;;0.70;;
19095;SDS011;9680;52.520;13.332;2023-04-24T12:52:22;3.20;;;0.80;;
19095;SDS011;9680;52.520;13.332;2023-04-24T12:54:51;1.50;;;0.70;;
19095;SDS011;9680;52.520;13.332;2023-04-24T12:57:19;1.30;;;0.73;;
19095;SDS011;9680;52.520;13.332;2023-04-24T12:59:46;1.75;;;0.80;;
19095;SDS011;9680;52.520;13.332;2023-04-24T13:02:12;2.70;;;0.80;;
19095;SDS011;9680;52.520;13.332;2023-04-24T13:04:44;0.90;;;0.70;;
19095;SDS011;9680;52.520;13.332;2023-04-24T13:07:12;1.48;;;0.60;;
19095;SDS011;9680;52.520;13.332;2023-04-24T13:09:39;3.10;;;1.20;;
19095;SDS011;9680;52.520;13.332;2023-04-24T13:12:06;3.35;;;0.88;;
19095;SDS011;9680;52.520;13.332;2023-04-24T13:14:33;3.70;;;0.90;;
19095;SDS011;9680;52.520;13.332;2023-04-24T13:17:00;1.05;;;0.70;;
19095;SDS011;9680;52.520;13.332;2023-04-24T13:19:27;1.60;;;0.80;;
19095;SDS011;9680;52.520;13.332;2023-04-24T13:21:56;1.00;;;0.60;;
19095;SDS011;9680;52.520;13.332;2023-04-24T13:24:24;2.35;;;0.77;;
19095;SDS011;9680;52.520;13.332;2023-04-24T13:26:51;3.58;;;1.13;;
19095;SDS011;9680;52.520;13.332;2023-04-24T13:29:18;1.50;;;0.95;;
19095;SDS011;9680;52.520;13.332;2023-04-24T13:31:45;1.63;;;0.70;;
19095;SDS011;9680;52.520;13.332;2023-04-24T13:34:12;0.73;;;0.70;;
19095;SDS011;9680;52.520;13.332;2023-04-24T13:36:39;0.93;;;0.70;;
19095;SDS011;9680;52.520;13.332;2023-04-24T13:39:07;3.10;;;0.90;;
19095;SDS011;9680;52.520;13.332;2023-04-24T13:41:34;1.48;;;1.00;;
19095;SDS011;9680;52.520;13.332;2023-04-24T13:44:01;1.30;;;0.80;;
19095;SDS011;9680;52.520;13.332;2023-04-24T13:46:28;1.00;;;0.80;;
19095;SDS011;9680;52.520;13.332;2023-04-24T13:48:54;3.65;;;0.80;;
19095;SDS011;9680;52.520;13.332;2023-04-24T13:51:22;5.75;;;1.00;;
19095;SDS011;9680;52.520;13.332;2023-04-24T13:53:49;1.58;;;0.70;;
19095;SDS011;9680;52.520;13.332;2023-04-24T13:56:17;1.00;;;0.70;;
19095;SDS011;9680;52.520;13.332;2023-04-24T13:58:43;1.52;;;0.63;;
19095;SDS011;9680;52.520;13.332;2023-04-24T14:01:10;1.25;;;0.70;;
19095;SDS011;9680;52.520;13.332;2023-04-24T14:03:37;1.17;;;0.75;;
19095;SDS011;9680;52.520;13.332;2023-04-24T14:06:04;1.30;;;0.85;;
19095;SDS011;9680;52.520;13.332;2023-04-24T14:08:31;1.48;;;0.80;;
19095;SDS011;9680;52.520;13.332;2023-04-24T14:10:58;1.00;;;0.75;;
19095;SDS011;9680;52.520;13.332;2023-04-24T14:13:26;1.38;;;0.80;;
19095;SDS011;9680;52.520;13.332;2023-04-24T14:15:53;0.98;;;0.70;;
19095;SDS011;9680;52.520;13.332;2023-04-24T14:18:20;1.92;;;0.90;;
19095;SDS011;9680;52.520;13.332;2023-04-24T14:20:47;0.73;;;0.70;;
19095;SDS011;9680;52.520;13.332;2023-04-24T14:23:14;2.55;;;1.10;;
19095;SDS011;9680;52.520;13.332;2023-04-24T14:25:41;1.70;;;1.00;;
19095;SDS011;9680;52.520;13.332;2023-04-24T14:28:07;2.85;;;0.90;;
19095;SDS011;9680;52.520;13.332;2023-04-24T14:30:35;4.15;;;1.23;;
19095;SDS011;9680;52.520;13.332;2023-04-24T14:33:02;1.20;;;0.90;;
19095;SDS011;9680;52.520;13.332;2023-04-24T14:35:29;2.50;;;0.90;;
19095;SDS011;9680;52.520;13.332;2023-04-24T14:37:59;1.50;;;0.70;;
19095;SDS011;9680;52.520;13.332;2023-04-24T14:40:25;1.70;;;0.90;;
19095;SDS011;9680;52.520;13.332;2023-04-24T14:42:52;4.10;;;0.80;;
19095;SDS011;9680;52.520;13.332;2023-04-24T14:45:19;5.68;;;1.30;;
19095;SDS011;9680;52.520;13.332;2023-04-24T14:47:47;1.85;;;0.90;;
19095;SDS011;9680;52.520;13.332;2023-04-24T14:50:14;1.35;;;0.93;;
19095;SDS011;9680;52.520;13.332;2023-04-24T14:52:40;3.08;;;0.85;;
19095;SDS011;9680;52.520;13.332;2023-04-24T14:55:07;1.33;;;1.08;;
19095;SDS011;9680;52.520;13.332;2023-04-24T14:57:35;2.40;;;1.10;;
19095;SDS011;9680;52.520;13.332;2023-04-24T15:00:02;1.55;;;0.90;;